METAR Data
IDs: Format: Raw Decoded Include TAF

Data at: 2218 UTC 02 Oct 2022

KCMA 022155Z 26010G17KT 10SM CLR 24/14 A2992 RMK AO2 SLP140 T02390144